Time;durP1;ratioP1;P1;durP2;ratioP2;P2;SDS_P1;SDS_P2;PMS_P1;PMS_P2;Temp;Humidity;BMP_temperature;BMP_pressure;BME280_temperature;BME280_humidity;BME280_pressure;Samples;Min_cycle;Max_cycle;Signal;HPM_P1;HPM_P2
2023/01/04 00:01:48;;;;;;;13.37;12.47;;;4.60;99.90;;;;;;5028405;28;20554;-48
2023/01/04 00:04:14;;;;;;;13.17;12.27;;;4.60;99.90;;;;;;5028246;28;20240;-55
2023/01/04 00:06:39;;;;;;;12.77;12.03;;;4.60;99.90;;;;;;5030602;28;20191;-47
2023/01/04 00:09:05;;;;;;;13.80;12.77;;;4.60;99.90;;;;;;5028448;28;20186;-48
2023/01/04 00:11:31;;;;;;;13.17;12.30;;;4.60;99.90;;;;;;5027218;28;20610;-47
2023/01/04 00:13:58;;;;;;;12.77;11.87;;;4.60;99.90;;;;;;5027442;28;20183;-48
2023/01/04 00:16:26;;;;;;;12.60;11.77;;;4.60;99.90;;;;;;5029157;28;20211;-51
2023/01/04 00:18:53;;;;;;;12.80;12.00;;;4.60;99.90;;;;;;5028670;28;20191;-51
2023/01/04 00:21:27;;;;;;;13.13;12.32;;;4.60;99.90;;;;;;5029771;28;20637;-50
2023/01/04 00:23:55;;;;;;;13.00;12.20;;;4.50;99.90;;;;;;5027073;28;20669;-47
2023/01/04 00:26:30;;;;;;;12.85;11.95;;;4.50;99.90;;;;;;5027918;28;20190;-48
2023/01/04 00:29:01;;;;;;;13.15;12.25;;;4.40;99.90;;;;;;5027437;28;20194;-47
2023/01/04 00:31:27;;;;;;;12.90;12.10;;;4.40;99.90;;;;;;5027457;28;20192;-49
2023/01/04 00:33:55;;;;;;;13.65;12.57;;;4.40;99.90;;;;;;5028883;28;20199;-48
2023/01/04 00:36:21;;;;;;;13.18;12.18;;;4.40;99.90;;;;;;5027223;28;20202;-48
2023/01/04 00:38:46;;;;;;;13.05;12.20;;;4.40;99.90;;;;;;5027143;28;20213;-48
2023/01/04 00:41:14;;;;;;;13.10;12.13;;;4.40;99.90;;;;;;5027504;28;20620;-50
2023/01/04 00:43:39;;;;;;;13.95;12.93;;;4.40;99.90;;;;;;5029592;28;20847;-47
2023/01/04 00:46:10;;;;;;;13.40;12.50;;;4.30;99.90;;;;;;5027680;28;20183;-47
2023/01/04 00:48:36;;;;;;;13.30;12.45;;;4.30;99.90;;;;;;5028454;28;20274;-50
2023/01/04 00:51:02;;;;;;;13.45;12.50;;;4.30;99.90;;;;;;5026437;28;20197;-47
2023/01/04 00:53:27;;;;;;;13.23;12.33;;;4.30;99.90;;;;;;5027274;28;20533;-49
2023/01/04 00:55:59;;;;;;;13.20;12.27;;;4.30;99.90;;;;;;5027210;28;20767;-52
2023/01/04 00:58:24;;;;;;;13.50;12.70;;;4.30;99.90;;;;;;5028270;28;20178;-49
2023/01/04 01:00:50;;;;;;;13.10;12.30;;;4.30;99.90;;;;;;5027868;28;20209;-48
2023/01/04 01:03:16;;;;;;;13.27;12.33;;;4.20;99.90;;;;;;5026615;28;20274;-47
2023/01/04 01:05:41;;;;;;;14.50;12.23;;;4.20;99.90;;;;;;5027841;28;20207;-49
2023/01/04 01:08:25;;;;;;;13.63;12.73;;;4.20;99.90;;;;;;5028448;28;20546;-47
2023/01/04 01:10:52;;;;;;;14.15;12.75;;;4.20;99.90;;;;;;5029198;28;20229;-50
2023/01/04 01:13:18;;;;;;;13.55;12.65;;;4.10;99.90;;;;;;5025400;28;20196;-52
2023/01/04 01:15:44;;;;;;;14.20;13.20;;;4.00;99.90;;;;;;5026722;28;20292;-50
2023/01/04 01:18:10;;;;;;;13.57;12.60;;;3.90;99.90;;;;;;5026597;28;21028;-47
2023/01/04 01:20:42;;;;;;;13.17;12.27;;;3.90;99.90;;;;;;5029352;28;20513;-47
2023/01/04 01:23:09;;;;;;;13.48;12.57;;;3.80;99.90;;;;;;5028043;28;20429;-46
2023/01/04 01:25:34;;;;;;;14.20;13.20;;;3.70;99.90;;;;;;5026166;28;20551;-48
2023/01/04 01:28:00;;;;;;;13.30;12.40;;;3.80;99.90;;;;;;5025850;28;20182;-48
2023/01/04 01:30:25;;;;;;;12.70;11.80;;;3.70;99.90;;;;;;5026200;28;20237;-48
2023/01/04 01:32:51;;;;;;;13.90;12.80;;;3.70;99.90;;;;;;5028770;28;20206;-48
2023/01/04 01:35:16;;;;;;;12.97;12.17;;;3.70;99.90;;;;;;5026724;28;20608;-48
2023/01/04 01:37:42;;;;;;;14.00;12.87;;;3.70;99.90;;;;;;5027167;28;20191;-47
2023/01/04 01:40:08;;;;;;;13.10;12.20;;;3.70;99.90;;;;;;5028685;28;20194;-45
2023/01/04 01:42:34;;;;;;;13.05;12.20;;;3.60;99.90;;;;;;5031138;28;20186;-48
2023/01/04 01:45:09;;;;;;;13.27;12.30;;;3.60;99.90;;;;;;5030786;28;20193;-49
2023/01/04 01:47:42;;;;;;;12.88;12.02;;;3.60;99.90;;;;;;5032006;28;20206;-49
2023/01/04 01:50:36;;;;;;;12.93;12.02;;;3.60;99.90;;;;;;5029124;28;20186;-49
2023/01/04 01:53:06;;;;;;;12.60;11.75;;;3.50;99.90;;;;;;5022126;28;20510;-48
2023/01/04 01:55:34;;;;;;;12.35;11.45;;;3.50;99.90;;;;;;5029837;28;20199;-49
2023/01/04 01:58:00;;;;;;;12.98;12.07;;;3.60;99.90;;;;;;5031425;28;20191;-47
2023/01/04 02:00:27;;;;;;;13.00;12.10;;;3.60;99.90;;;;;;5031560;28;20204;-49
2023/01/04 02:03:12;;;;;;;12.90;12.00;;;3.60;99.90;;;;;;5028764;28;20515;-45
2023/01/04 02:05:38;;;;;;;12.63;11.70;;;3.60;99.90;;;;;;5030149;28;20198;-49
2023/01/04 02:08:05;;;;;;;12.00;11.20;;;3.60;99.90;;;;;;5029526;28;20194;-53
2023/01/04 02:10:31;;;;;;;12.82;12.02;;;3.60;99.90;;;;;;5030736;28;20486;-50
2023/01/04 02:12:58;;;;;;;12.05;11.25;;;3.60;99.90;;;;;;5031361;28;20640;-47
2023/01/04 02:15:29;;;;;;;12.82;11.93;;;3.60;99.90;;;;;;5029389;28;20613;-48
2023/01/04 02:18:00;;;;;;;12.75;11.85;;;3.60;99.90;;;;;;5027219;28;20711;-48
2023/01/04 02:20:32;;;;;;;12.10;11.38;;;3.60;99.90;;;;;;5029761;28;20659;-47
2023/01/04 02:23:25;;;;;;;12.02;11.23;;;3.70;99.90;;;;;;5030538;28;20175;-50
2023/01/04 02:26:08;;;;;;;12.48;11.68;;;3.70;99.90;;;;;;5031049;28;20221;-46
2023/01/04 02:28:49;;;;;;;12.13;11.40;;;3.80;99.90;;;;;;5028634;28;20210;-50
2023/01/04 02:31:26;;;;;;;12.38;11.68;;;3.70;99.90;;;;;;5028876;28;20205;-47
2023/01/04 02:34:10;;;;;;;12.50;11.60;;;3.80;99.90;;;;;;5030227;28;20207;-47
2023/01/04 02:36:57;;;;;;;12.50;11.70;;;3.80;99.90;;;;;;5029630;28;20378;-47
2023/01/04 02:39:38;;;;;;;12.50;11.60;;;3.80;99.90;;;;;;5029198;28;20181;-48
2023/01/04 02:44:51;;;;;;;12.23;11.43;;;3.80;99.90;;;;;;5029715;28;20269;-50
2023/01/04 02:45:16;;;;;;;13.30;12.30;;;3.90;99.90;;;;;;5029755;28;20185;-46
2023/01/04 02:50:49;;;;;;;11.70;11.00;;;3.90;99.90;;;;;;5030142;28;20239;-49
2023/01/04 02:53:19;;;;;;;12.40;11.60;;;3.90;99.90;;;;;;5029325;28;20210;-47
2023/01/04 02:55:51;;;;;;;12.70;11.90;;;3.90;99.90;;;;;;5028505;28;20202;-50
2023/01/04 02:58:31;;;;;;;12.35;11.45;;;3.90;99.90;;;;;;5030058;28;20178;-47
2023/01/04 03:08:03;;;;;;;12.38;11.57;;;3.90;99.90;;;;;;5026984;28;20178;-52
2023/01/04 03:10:40;;;;;;;13.80;12.75;;;3.90;99.90;;;;;;5030037;28;20700;-49
2023/01/04 03:13:21;;;;;;;13.10;12.10;;;3.90;99.90;;;;;;5028650;28;20265;-47
2023/01/04 03:15:53;;;;;;;13.10;12.30;;;3.90;99.90;;;;;;5027426;28;20210;-49
2023/01/04 03:18:24;;;;;;;13.10;12.20;;;3.90;99.90;;;;;;5029204;28;20236;-46
2023/01/04 03:20:52;;;;;;;13.40;12.60;;;4.00;99.90;;;;;;5028750;28;20308;-47
2023/01/04 03:37:44;;;;;;;17.52;15.93;;;4.30;99.90;;;;;;5030910;28;20200;-48
2023/01/04 03:49:13;;;;;;;18.42;16.70;;;4.40;99.90;;;;;;5027882;28;20640;-49
2023/01/04 03:51:39;;;;;;;19.67;17.73;;;4.50;99.90;;;;;;5029426;28;20179;-47
2023/01/04 03:54:19;;;;;;;18.35;16.90;;;4.50;99.90;;;;;;5026901;28;20557;-48
2023/01/04 03:56:46;;;;;;;18.95;17.25;;;4.50;99.90;;;;;;5028568;28;20256;-50
2023/01/04 03:59:12;;;;;;;18.77;17.20;;;4.60;99.90;;;;;;5025499;28;20190;-52
2023/01/04 04:01:40;;;;;;;18.57;17.17;;;4.60;99.90;;;;;;5031135;28;20183;-47
2023/01/04 04:09:34;;;;;;;18.88;17.10;;;4.70;99.90;;;;;;5027265;28;20202;-49
2023/01/04 04:12:00;;;;;;;18.13;16.63;;;4.80;99.90;;;;;;5027550;28;20182;-48
2023/01/04 04:14:25;;;;;;;19.20;17.60;;;4.80;99.90;;;;;;5028326;28;20561;-47
2023/01/04 04:16:51;;;;;;;19.27;17.57;;;4.90;99.90;;;;;;5026377;28;20206;-48
2023/01/04 04:19:16;;;;;;;19.23;17.33;;;4.90;99.90;;;;;;5028077;28;20842;-48
2023/01/04 04:21:42;;;;;;;19.27;17.67;;;4.90;99.90;;;;;;5027138;28;20191;-47
2023/01/04 04:24:16;;;;;;;18.73;17.13;;;5.00;99.90;;;;;;5029162;28;20221;-48
2023/01/04 04:26:42;;;;;;;18.30;16.60;;;5.00;99.90;;;;;;5028892;28;20191;-47
2023/01/04 04:29:07;;;;;;;19.43;17.90;;;5.10;99.90;;;;;;5028249;28;20189;-47
2023/01/04 04:31:33;;;;;;;18.63;17.13;;;5.20;99.90;;;;;;5027100;28;20312;-46
2023/01/04 04:33:58;;;;;;;19.20;17.60;;;5.20;99.90;;;;;;5028337;28;20190;-49
2023/01/04 04:36:24;;;;;;;18.40;16.77;;;5.10;99.90;;;;;;5029103;28;20213;-45
2023/01/04 04:38:50;;;;;;;18.33;16.77;;;5.10;99.90;;;;;;5027210;28;20191;-49
2023/01/04 04:43:59;;;;;;;18.20;16.60;;;5.10;99.90;;;;;;5027277;28;20885;-50
2023/01/04 04:46:25;;;;;;;18.30;16.70;;;5.00;99.90;;;;;;5027147;28;20186;-53
2023/01/04 04:48:51;;;;;;;18.80;17.20;;;5.10;99.90;;;;;;5028539;28;20609;-49
2023/01/04 04:51:16;;;;;;;18.50;16.90;;;5.00;99.90;;;;;;5028285;28;20189;-47
2023/01/04 04:53:42;;;;;;;18.60;17.00;;;5.00;99.90;;;;;;5025149;28;20190;-48
2023/01/04 04:56:08;;;;;;;18.13;16.43;;;5.00;99.90;;;;;;5027245;28;20198;-46
2023/01/04 04:58:34;;;;;;;17.67;16.15;;;5.00;99.90;;;;;;5026070;28;20434;-47
2023/01/04 05:01:00;;;;;;;18.03;16.43;;;5.00;99.90;;;;;;5027175;28;20187;-50
2023/01/04 05:03:26;;;;;;;18.47;16.97;;;5.10;99.90;;;;;;5029534;28;20441;-48
2023/01/04 05:05:51;;;;;;;19.10;17.43;;;5.10;99.90;;;;;;5027474;28;20665;-48
2023/01/04 05:08:17;;;;;;;17.80;16.23;;;5.10;99.90;;;;;;5026649;28;20191;-46
2023/01/04 05:10:42;;;;;;;18.17;16.57;;;5.10;99.90;;;;;;5029111;28;20289;-45
2023/01/04 05:13:11;;;;;;;18.07;16.57;;;5.10;99.90;;;;;;5028206;28;20661;-47
2023/01/04 05:15:42;;;;;;;18.98;17.08;;;5.10;99.90;;;;;;5030076;28;20669;-48
2023/01/04 05:18:10;;;;;;;18.50;16.90;;;5.10;99.90;;;;;;5030248;28;20615;-47
2023/01/04 05:20:36;;;;;;;17.73;16.23;;;5.10;99.90;;;;;;5024001;28;20179;-49
2023/01/04 05:23:02;;;;;;;17.60;15.80;;;5.10;99.90;;;;;;5023928;28;20561;-50
2023/01/04 05:25:28;;;;;;;18.30;16.50;;;5.20;99.90;;;;;;5023379;28;20517;-50
2023/01/04 05:27:53;;;;;;;18.90;17.20;;;5.10;99.90;;;;;;5022784;28;20269;-48
2023/01/04 05:33:04;;;;;;;18.20;16.60;;;5.20;99.90;;;;;;5022515;28;20201;-50
2023/01/04 05:35:30;;;;;;;17.88;16.38;;;5.20;99.90;;;;;;5023555;28;20228;-47
2023/01/04 05:37:55;;;;;;;20.47;18.27;;;5.20;99.90;;;;;;5023013;28;20654;-48
2023/01/04 05:40:21;;;;;;;19.20;17.70;;;5.20;99.90;;;;;;5025283;28;20300;-47
2023/01/04 05:42:47;;;;;;;19.20;17.40;;;5.30;99.90;;;;;;5021443;28;20240;-48
2023/01/04 05:45:14;;;;;;;18.40;16.70;;;5.30;99.90;;;;;;5022773;28;21293;-50
2023/01/04 05:47:40;;;;;;;19.35;17.60;;;5.20;99.90;;;;;;5023108;28;20419;-43
2023/01/04 05:50:06;;;;;;;19.27;17.57;;;5.30;99.90;;;;;;5024685;28;20636;-47
2023/01/04 05:52:32;;;;;;;18.10;16.40;;;5.30;99.90;;;;;;5023514;28;20316;-45
2023/01/04 05:54:58;;;;;;;18.53;16.83;;;5.30;99.90;;;;;;5023222;28;20605;-47
2023/01/04 05:57:24;;;;;;;17.33;15.83;;;5.20;99.90;;;;;;5021849;28;20799;-45
2023/01/04 05:59:49;;;;;;;17.57;15.97;;;5.20;99.90;;;;;;5021190;28;20198;-42
2023/01/04 06:02:21;;;;;;;16.63;15.13;;;5.30;99.90;;;;;;5021620;28;20229;-43
2023/01/04 06:04:47;;;;;;;17.73;16.05;;;5.30;99.90;;;;;;5023781;28;20202;-45
2023/01/04 06:07:14;;;;;;;17.90;16.40;;;5.30;99.90;;;;;;5022472;28;20188;-44
2023/01/04 06:09:40;;;;;;;17.00;15.50;;;5.30;99.90;;;;;;5022091;28;20274;-46
2023/01/04 06:12:06;;;;;;;17.58;16.08;;;5.30;99.90;;;;;;5021965;28;20179;-43
2023/01/04 06:14:31;;;;;;;18.10;16.43;;;5.30;99.90;;;;;;5024467;28;20185;-43
2023/01/04 06:16:58;;;;;;;18.33;16.73;;;5.20;99.90;;;;;;5021958;28;21116;-45
2023/01/04 06:19:24;;;;;;;20.25;18.33;;;5.20;99.90;;;;;;5023723;28;20282;-44
2023/01/04 06:21:50;;;;;;;20.17;18.27;;;5.20;99.90;;;;;;5023587;28;20173;-45
2023/01/04 06:24:15;;;;;;;18.80;17.10;;;5.20;99.90;;;;;;5020273;28;20465;-47
2023/01/04 06:26:41;;;;;;;19.40;17.60;;;5.20;99.90;;;;;;5022998;28;20264;-45
2023/01/04 06:29:07;;;;;;;18.80;17.13;;;5.20;99.90;;;;;;5024333;28;20196;-46
2023/01/04 06:31:32;;;;;;;18.80;17.00;;;5.30;99.90;;;;;;5023899;28;20199;-45
2023/01/04 06:33:58;;;;;;;19.90;18.10;;;5.30;99.90;;;;;;5021786;28;20503;-46
2023/01/04 06:36:24;;;;;;;18.43;16.83;;;5.30;99.90;;;;;;5023027;28;20206;-46
2023/01/04 06:38:50;;;;;;;19.40;17.60;;;5.30;99.90;;;;;;5022777;28;20479;-44
2023/01/04 06:41:16;;;;;;;20.43;18.53;;;5.30;99.90;;;;;;5022407;28;21002;-42
2023/01/04 06:43:42;;;;;;;19.03;17.33;;;5.30;99.90;;;;;;5023635;28;20189;-42
2023/01/04 06:46:07;;;;;;;20.77;18.77;;;5.30;99.90;;;;;;5021300;28;20852;-47
2023/01/04 06:48:33;;;;;;;20.73;18.93;;;5.30;99.90;;;;;;5021721;28;20194;-44
2023/01/04 06:50:58;;;;;;;18.90;17.10;;;5.40;99.90;;;;;;5022333;28;20183;-43
2023/01/04 06:53:24;;;;;;;21.57;19.40;;;5.40;99.90;;;;;;5022721;28;20272;-45
2023/01/04 06:55:50;;;;;;;20.10;18.30;;;5.40;99.90;;;;;;5020909;28;20267;-43
2023/01/04 06:58:16;;;;;;;19.23;17.53;;;5.40;99.90;;;;;;5022596;28;20262;-47
2023/01/04 07:00:41;;;;;;;18.60;16.90;;;5.50;99.90;;;;;;5021384;28;20182;-45
2023/01/04 07:03:08;;;;;;;18.73;16.93;;;5.50;99.90;;;;;;5025608;28;20499;-43
2023/01/04 07:05:34;;;;;;;19.38;17.60;;;5.50;99.90;;;;;;5020877;28;20619;-44
2023/01/04 07:08:01;;;;;;;18.90;17.10;;;5.60;99.90;;;;;;5021683;28;20191;-45
2023/01/04 07:10:27;;;;;;;18.77;17.08;;;5.60;99.90;;;;;;5020597;28;20276;-45
2023/01/04 07:12:52;;;;;;;18.85;17.15;;;5.60;99.90;;;;;;5024247;28;20185;-42
2023/01/04 07:15:18;;;;;;;18.53;16.93;;;5.70;99.90;;;;;;5021389;28;20570;-46
2023/01/04 07:17:46;;;;;;;19.47;17.67;;;5.60;99.90;;;;;;5021877;28;21090;-47
2023/01/04 07:20:12;;;;;;;17.85;16.33;;;5.60;99.90;;;;;;5019929;28;20184;-46
2023/01/04 07:22:38;;;;;;;16.67;15.30;;;5.60;99.90;;;;;;5021631;28;20186;-44
2023/01/04 07:25:04;;;;;;;18.23;16.63;;;5.60;99.90;;;;;;5019942;28;20230;-43
2023/01/04 07:27:29;;;;;;;17.70;15.97;;;5.60;99.90;;;;;;5020119;28;20182;-43
2023/01/04 07:29:55;;;;;;;17.63;16.23;;;5.60;99.90;;;;;;5018603;28;20414;-42
2023/01/04 07:32:20;;;;;;;17.23;15.83;;;5.60;99.90;;;;;;5019032;28;20547;-42
2023/01/04 07:34:46;;;;;;;17.00;15.60;;;5.60;99.90;;;;;;5020202;28;20242;-43
2023/01/04 07:37:12;;;;;;;16.43;15.10;;;5.70;99.90;;;;;;5020716;28;20819;-47
2023/01/04 07:39:38;;;;;;;15.87;14.57;;;5.70;99.90;;;;;;5021009;28;20246;-43
2023/01/04 07:42:03;;;;;;;16.50;15.20;;;5.70;99.90;;;;;;5020279;28;20733;-46
2023/01/04 07:44:29;;;;;;;16.30;14.90;;;5.80;99.90;;;;;;5019773;28;20492;-45
2023/01/04 07:46:56;;;;;;;15.83;14.47;;;5.80;99.90;;;;;;5019026;28;20211;-49
2023/01/04 07:49:21;;;;;;;16.55;15.18;;;6.00;99.90;;;;;;5017944;28;20195;-45
2023/01/04 07:51:48;;;;;;;15.57;14.27;;;6.10;99.90;;;;;;5019796;28;20718;-45
2023/01/04 07:54:15;;;;;;;16.75;15.23;;;6.10;99.90;;;;;;5018919;28;20209;-44
2023/01/04 07:56:41;;;;;;;16.40;15.15;;;6.20;99.90;;;;;;5019804;28;20358;-44
2023/01/04 07:59:08;;;;;;;17.27;15.65;;;6.30;99.90;;;;;;5019388;28;20567;-44
2023/01/04 08:01:36;;;;;;;16.50;15.20;;;6.30;99.90;;;;;;5018409;28;20204;-44
2023/01/04 08:04:02;;;;;;;16.88;15.50;;;6.40;99.90;;;;;;5018959;28;20582;-44
2023/01/04 08:06:27;;;;;;;16.60;15.30;;;6.40;99.90;;;;;;5018820;28;20193;-47
2023/01/04 08:08:53;;;;;;;15.83;14.53;;;6.50;99.90;;;;;;5019039;28;20200;-50
2023/01/04 08:11:21;;;;;;;16.40;15.10;;;6.50;99.90;;;;;;5019965;28;20194;-48
2023/01/04 08:13:47;;;;;;;15.13;14.03;;;6.60;99.90;;;;;;5019630;28;20190;-48
2023/01/04 08:16:30;;;;;;;14.57;13.37;;;6.70;99.90;;;;;;5019780;28;20554;-49
2023/01/04 08:18:57;;;;;;;15.15;13.95;;;6.80;99.90;;;;;;5020104;28;20428;-45
2023/01/04 08:21:24;;;;;;;16.13;14.73;;;6.80;99.90;;;;;;5018277;28;20191;-43
2023/01/04 08:23:51;;;;;;;15.10;14.03;;;6.90;99.90;;;;;;5018728;28;20465;-44
2023/01/04 08:26:17;;;;;;;15.30;13.90;;;7.00;99.90;;;;;;5020950;28;20527;-46
2023/01/04 08:28:43;;;;;;;15.77;14.50;;;7.00;99.90;;;;;;5018558;28;20466;-48
2023/01/04 08:31:12;;;;;;;16.10;14.80;;;7.00;99.90;;;;;;5017450;28;20456;-47
2023/01/04 08:33:38;;;;;;;14.77;13.67;;;7.10;99.90;;;;;;5020251;28;20463;-47
2023/01/04 08:36:28;;;;;;;15.75;14.65;;;7.20;99.90;;;;;;5018345;28;20464;-43
2023/01/04 08:38:58;;;;;;;16.00;14.80;;;7.20;99.90;;;;;;5019022;28;20209;-43
2023/01/04 08:41:24;;;;;;;15.27;14.17;;;7.30;99.90;;;;;;5018048;28;20413;-44
2023/01/04 08:43:50;;;;;;;16.50;15.30;;;7.30;99.90;;;;;;5020475;28;20420;-44
2023/01/04 08:46:15;;;;;;;15.87;14.57;;;7.30;99.90;;;;;;5018566;28;20218;-44
2023/01/04 08:48:41;;;;;;;14.80;13.80;;;7.30;99.90;;;;;;5017769;28;20203;-42
2023/01/04 08:51:14;;;;;;;16.07;14.90;;;7.20;99.90;;;;;;5017482;28;20490;-44
2023/01/04 08:53:40;;;;;;;16.10;14.90;;;7.30;99.90;;;;;;5020962;28;20950;-42
2023/01/04 08:56:07;;;;;;;15.60;14.50;;;7.30;99.90;;;;;;5019447;28;20475;-46
2023/01/04 08:58:34;;;;;;;16.17;15.00;;;7.40;99.90;;;;;;5019542;28;20428;-46
2023/01/04 09:01:06;;;;;;;14.83;13.73;;;7.40;99.90;;;;;;5019213;28;20489;-42
2023/01/04 09:03:32;;;;;;;15.93;14.83;;;7.40;99.90;;;;;;5016299;28;20535;-44
2023/01/04 09:06:12;;;;;;;15.23;14.20;;;7.50;99.90;;;;;;5019285;28;20442;-46
2023/01/04 09:08:39;;;;;;;12.73;11.83;;;7.60;99.90;;;;;;5019148;28;20440;-44
2023/01/04 09:11:07;;;;;;;14.53;13.53;;;7.60;99.90;;;;;;5018831;28;20468;-47
2023/01/04 09:13:35;;;;;;;12.53;11.53;;;7.60;99.90;;;;;;5017958;28;20441;-48
2023/01/04 09:16:06;;;;;;;13.90;13.00;;;7.60;99.90;;;;;;5021222;28;20472;-46
2023/01/04 09:18:32;;;;;;;14.07;13.07;;;7.70;99.90;;;;;;5019751;28;20491;-46
2023/01/04 09:21:00;;;;;;;12.43;11.63;;;7.70;99.90;;;;;;5019744;28;20432;-50
2023/01/04 09:23:27;;;;;;;13.17;12.37;;;7.80;99.90;;;;;;5019772;28;20465;-47
2023/01/04 09:25:53;;;;;;;13.80;12.90;;;7.80;99.90;;;;;;5018061;28;20910;-47
2023/01/04 09:28:19;;;;;;;13.57;12.67;;;7.90;99.90;;;;;;5016867;28;20451;-49
2023/01/04 09:30:44;;;;;;;12.20;11.40;;;7.90;99.90;;;;;;5017359;28;20826;-44
2023/01/04 09:33:10;;;;;;;13.10;12.30;;;8.10;99.90;;;;;;5017533;28;20511;-45
2023/01/04 09:35:35;;;;;;;13.57;12.70;;;8.20;99.90;;;;;;5017221;28;20221;-45
2023/01/04 09:38:01;;;;;;;11.60;11.00;;;8.20;99.90;;;;;;5015703;28;20537;-44
2023/01/04 09:40:32;;;;;;;13.63;12.70;;;8.30;99.90;;;;;;5017373;28;20637;-44
2023/01/04 09:43:01;;;;;;;11.83;11.13;;;8.30;99.90;;;;;;5018972;28;20580;-42
2023/01/04 09:45:28;;;;;;;12.27;11.50;;;8.40;99.90;;;;;;5018206;28;20456;-43
2023/01/04 09:48:03;;;;;;;12.80;12.10;;;8.30;99.90;;;;;;5016693;28;20487;-45
2023/01/04 09:50:50;;;;;;;13.30;12.50;;;8.30;99.90;;;;;;5017452;28;20977;-46
2023/01/04 09:53:35;;;;;;;12.70;12.00;;;8.30;99.90;;;;;;5017883;28;20417;-44
2023/01/04 09:56:27;;;;;;;13.37;12.57;;;8.30;99.90;;;;;;5019692;28;20833;-46
2023/01/04 09:58:53;;;;;;;14.80;13.87;;;8.30;99.90;;;;;;5016864;28;20443;-45
2023/01/04 10:01:40;;;;;;;14.80;13.90;;;8.30;99.90;;;;;;5018724;28;20535;-44
2023/01/04 10:04:26;;;;;;;15.57;14.67;;;8.20;99.90;;;;;;5021911;28;20428;-48
2023/01/04 10:06:53;;;;;;;14.70;13.73;;;8.20;99.90;;;;;;5021895;28;20417;-50
2023/01/04 10:09:19;;;;;;;13.70;13.00;;;8.20;99.90;;;;;;5023679;28;20908;-48
2023/01/04 10:11:57;;;;;;;14.60;13.80;;;8.20;99.90;;;;;;5052766;28;20544;-47
2023/01/04 10:15:04;;;;;;;12.90;12.20;;;8.20;99.90;;;;;;5023745;28;20866;-47
2023/01/04 10:17:49;;;;;;;13.30;12.60;;;8.30;99.90;;;;;;5020226;28;20476;-51
2023/01/04 10:20:41;;;;;;;13.93;13.20;;;8.30;99.90;;;;;;5021771;28;20949;-49
2023/01/04 10:23:15;;;;;;;13.13;12.33;;;8.30;99.90;;;;;;5019891;28;20441;-48
2023/01/04 10:25:54;;;;;;;13.00;12.20;;;8.40;99.90;;;;;;5020594;28;20747;-47
2023/01/04 10:28:35;;;;;;;12.80;12.10;;;8.40;99.90;;;;;;5021461;28;20432;-51
2023/01/04 10:31:14;;;;;;;12.93;12.23;;;8.40;99.90;;;;;;5020613;28;20902;-47
2023/01/04 10:34:02;;;;;;;12.73;12.10;;;8.40;99.90;;;;;;5023721;28;20425;-48
2023/01/04 10:36:32;;;;;;;12.03;11.33;;;8.40;99.90;;;;;;5019488;28;20491;-46
2023/01/04 10:39:09;;;;;;;12.80;12.20;;;8.30;99.90;;;;;;5019672;28;20417;-47
2023/01/04 10:41:41;;;;;;;14.60;13.70;;;8.30;99.90;;;;;;5020319;28;21236;-51
2023/01/04 10:44:20;;;;;;;16.50;15.60;;;8.30;99.90;;;;;;5020361;28;20479;-51
2023/01/04 10:46:51;;;;;;;15.90;14.90;;;8.20;99.90;;;;;;5021261;28;21012;-47
2023/01/04 10:49:48;;;;;;;15.17;14.37;;;8.20;99.90;;;;;;5021083;28;20441;-46
2023/01/04 10:52:34;;;;;;;15.80;14.90;;;8.20;99.90;;;;;;5020598;28;20472;-45
2023/01/04 10:55:09;;;;;;;14.70;13.90;;;8.00;99.90;;;;;;5020127;28;20498;-46
2023/01/04 10:58:09;;;;;;;15.73;14.70;;;8.00;99.90;;;;;;5021475;28;20468;-48
2023/01/04 11:00:46;;;;;;;15.30;14.40;;;7.90;99.90;;;;;;5021349;28;20496;-47
2023/01/04 11:03:25;;;;;;;13.83;13.03;;;7.90;99.90;;;;;;5020148;28;20424;-50
2023/01/04 11:06:07;;;;;;;15.27;14.37;;;7.90;99.90;;;;;;5051931;28;20448;-50
2023/01/04 11:08:38;;;;;;;13.73;12.93;;;7.90;99.90;;;;;;5019866;28;20456;-49
2023/01/04 11:11:09;;;;;;;14.40;13.60;;;7.80;99.90;;;;;;5022208;28;20805;-49
2023/01/04 11:13:35;;;;;;;14.57;13.70;;;7.90;99.90;;;;;;5019503;28;20425;-49
2023/01/04 11:16:04;;;;;;;15.23;14.23;;;7.90;99.90;;;;;;5016891;28;20541;-49
2023/01/04 11:18:31;;;;;;;15.30;14.40;;;7.90;99.90;;;;;;5018507;28;20843;-49
2023/01/04 11:20:58;;;;;;;15.00;14.00;;;7.90;99.90;;;;;;5021480;28;20963;-46
2023/01/04 11:23:24;;;;;;;14.53;13.70;;;7.90;99.90;;;;;;5022586;28;21461;-49
2023/01/04 11:25:57;;;;;;;14.73;13.90;;;7.90;99.90;;;;;;5021109;28;20429;-50
2023/01/04 11:28:35;;;;;;;14.77;13.87;;;7.90;99.90;;;;;;5020569;28;20556;-47
2023/01/04 11:31:15;;;;;;;13.40;12.70;;;7.90;99.90;;;;;;5020405;28;20420;-50
2023/01/04 11:34:09;;;;;;;12.93;12.13;;;7.90;99.90;;;;;;5019400;28;20431;-52
2023/01/04 11:36:41;;;;;;;12.90;12.20;;;7.90;99.90;;;;;;5018109;28;20511;-53
2023/01/04 11:39:23;;;;;;;12.80;12.10;;;8.10;99.90;;;;;;5019060;28;20436;-46
2023/01/04 11:42:03;;;;;;;13.30;12.70;;;8.30;99.90;;;;;;5020165;28;20429;-46
2023/01/04 11:44:29;;;;;;;13.80;13.10;;;8.50;99.90;;;;;;5020833;28;20444;-50
2023/01/04 11:47:19;;;;;;;12.40;11.83;;;8.70;99.90;;;;;;5019855;28;20455;-49
2023/01/04 11:49:46;;;;;;;13.50;12.77;;;8.80;99.90;;;;;;5018797;28;20432;-49
2023/01/04 11:52:40;;;;;;;13.37;12.77;;;9.00;99.90;;;;;;5019913;28;21689;-49
2023/01/04 11:55:15;;;;;;;14.30;13.70;;;9.10;99.90;;;;;;5020245;28;20946;-47
2023/01/04 11:57:41;;;;;;;13.70;13.10;;;9.00;99.90;;;;;;5019320;28;20464;-48
2023/01/04 12:00:13;;;;;;;15.77;15.07;;;9.00;99.90;;;;;;5019008;28;20430;-50
2023/01/04 12:02:38;;;;;;;15.43;14.73;;;9.10;99.90;;;;;;5018793;28;20515;-53
2023/01/04 12:05:21;;;;;;;15.43;14.73;;;9.10;99.90;;;;;;5019765;28;20516;-48
2023/01/04 12:07:47;;;;;;;15.50;14.80;;;9.10;99.90;;;;;;5019080;28;20603;-51
2023/01/04 12:10:30;;;;;;;15.90;15.20;;;9.10;99.90;;;;;;5021298;28;20427;-45
2023/01/04 12:13:00;;;;;;;14.73;14.03;;;9.10;99.90;;;;;;5019499;28;20437;-46
2023/01/04 12:15:47;;;;;;;13.93;13.33;;;9.10;99.90;;;;;;5018243;28;20460;-46
2023/01/04 12:18:25;;;;;;;14.10;13.50;;;9.10;99.90;;;;;;5019062;28;20575;-45
2023/01/04 12:20:51;;;;;;;14.83;14.13;;;9.20;99.90;;;;;;5019174;28;20563;-45
2023/01/04 12:23:17;;;;;;;14.37;13.57;;;9.20;99.90;;;;;;5017773;28;20473;-47
2023/01/04 12:25:50;;;;;;;13.87;13.27;;;9.20;99.90;;;;;;5019147;28;20421;-47
2023/01/04 12:28:35;;;;;;;14.37;13.77;;;9.10;99.90;;;;;;5020451;28;20879;-48
2023/01/04 12:31:19;;;;;;;14.30;13.60;;;9.00;99.90;;;;;;5021959;28;20409;-43
2023/01/04 12:33:49;;;;;;;14.80;14.00;;;8.90;99.90;;;;;;5018527;28;20421;-46
2023/01/04 12:36:17;;;;;;;15.00;14.30;;;8.90;99.90;;;;;;5020259;28;20461;-47
2023/01/04 12:38:54;;;;;;;13.33;12.73;;;9.00;99.90;;;;;;5017651;28;20428;-47
2023/01/04 12:41:33;;;;;;;13.33;12.73;;;9.10;99.90;;;;;;5018099;28;20432;-48
2023/01/04 12:44:22;;;;;;;13.10;12.60;;;9.10;99.90;;;;;;5019405;28;20511;-44
2023/01/04 12:49:41;;;;;;;13.40;12.90;;;9.10;99.90;;;;;;5019442;28;20436;-44
2023/01/04 12:52:06;;;;;;;15.30;14.50;;;9.20;99.90;;;;;;5018376;28;20475;-44
2023/01/04 12:54:48;;;;;;;14.23;13.63;;;9.20;99.90;;;;;;5017720;28;20433;-47
2023/01/04 12:57:17;;;;;;;13.70;13.07;;;9.20;99.90;;;;;;5018690;28;20707;-47
2023/01/04 12:59:56;;;;;;;14.00;13.40;;;9.10;99.90;;;;;;5019653;28;20475;-47
2023/01/04 13:02:27;;;;;;;13.50;12.90;;;9.10;99.90;;;;;;5018706;28;20436;-51
2023/01/04 13:04:55;;;;;;;14.00;13.30;;;9.10;99.90;;;;;;5018026;28;20532;-48
2023/01/04 13:07:29;;;;;;;12.50;12.00;;;9.20;99.90;;;;;;5017908;28;20425;-45
2023/01/04 13:09:59;;;;;;;13.20;12.63;;;9.20;99.90;;;;;;5018685;28;20417;-45
2023/01/04 13:12:51;;;;;;;12.10;11.60;;;9.10;99.90;;;;;;5020552;28;20457;-49
2023/01/04 13:15:55;;;;;;;12.27;11.67;;;9.00;99.90;;;;;;5017195;28;21214;-45
2023/01/04 13:18:29;;;;;;;13.83;13.07;;;9.00;99.90;;;;;;5015925;28;20436;-45
2023/01/04 13:20:55;;;;;;;13.40;12.80;;;9.10;99.90;;;;;;5018234;28;20878;-48
2023/01/04 13:23:23;;;;;;;12.53;12.03;;;9.10;99.90;;;;;;5017923;28;20472;-47
2023/01/04 13:25:48;;;;;;;13.20;12.60;;;9.10;99.90;;;;;;5022212;28;20511;-44
2023/01/04 13:28:17;;;;;;;13.43;12.83;;;9.20;99.90;;;;;;5018667;28;20435;-50
2023/01/04 13:30:44;;;;;;;13.07;12.47;;;9.10;99.90;;;;;;5016515;28;20179;-44
2023/01/04 13:33:14;;;;;;;13.47;12.77;;;9.10;99.90;;;;;;5017273;28;20457;-46
2023/01/04 13:35:40;;;;;;;14.50;13.60;;;9.20;99.90;;;;;;5018163;28;20571;-45
2023/01/04 13:38:13;;;;;;;13.53;12.93;;;9.60;99.90;;;;;;5023051;28;20914;-50
2023/01/04 13:40:47;;;;;;;13.43;12.80;;;9.70;99.90;;;;;;5022057;28;20236;-49